Time;durP1;ratioP1;P1;durP2;ratioP2;P2;SDS_P1;SDS_P2;PMS_P1;PMS_P2;Temp;Humidity;BMP_temperature;BMP_pressure;BME280_temperature;BME280_humidity;BME280_pressure;Samples;Min_cycle;Max_cycle;Signal;HPM_P1;HPM_P2
2022/05/08 00:00:17;;;;;;;2.90;2.37;;;19.30;99.90;;;;;;1038416;28;20025;-72
2022/05/08 00:00:47;;;;;;;3.10;2.53;;;19.30;99.90;;;;;;1038758;28;20397;-73
2022/05/08 00:01:18;;;;;;;5.60;2.87;;;19.30;99.90;;;;;;1038648;28;20024;-71
2022/05/08 00:01:48;;;;;;;3.77;2.40;;;19.30;99.90;;;;;;1038936;28;20024;-71
2022/05/08 00:02:19;;;;;;;3.27;2.97;;;19.30;99.90;;;;;;1038635;28;20504;-71
2022/05/08 00:02:54;;;;;;;4.93;3.15;;;19.20;99.90;;;;;;1038657;28;20030;-73
2022/05/08 00:03:24;;;;;;;3.85;3.08;;;19.30;99.90;;;;;;1038886;28;20504;-74
2022/05/08 00:03:56;;;;;;;4.20;2.33;;;19.20;99.90;;;;;;1038498;28;20556;-72
2022/05/08 00:04:26;;;;;;;5.07;2.75;;;19.20;99.90;;;;;;1038775;28;20021;-73
2022/05/08 00:04:57;;;;;;;4.00;2.77;;;19.20;99.90;;;;;;1038667;28;20022;-74
2022/05/08 00:05:28;;;;;;;3.63;2.80;;;19.20;99.90;;;;;;1038861;28;20071;-73
2022/05/08 00:06:00;;;;;;;4.70;2.90;;;19.30;99.90;;;;;;1038499;28;20021;-73
2022/05/08 00:06:30;;;;;;;3.13;2.67;;;19.20;99.90;;;;;;1038791;28;20412;-73
2022/05/08 00:07:01;;;;;;;4.10;2.80;;;19.20;99.90;;;;;;1038572;28;20857;-73
2022/05/08 00:07:31;;;;;;;3.63;2.60;;;19.20;99.90;;;;;;1038885;28;20475;-73
2022/05/08 00:08:02;;;;;;;4.23;2.97;;;19.20;99.90;;;;;;1038994;28;20017;-72
2022/05/08 00:08:32;;;;;;;3.30;2.67;;;19.20;99.90;;;;;;1038657;28;20079;-73
2022/05/08 00:09:03;;;;;;;4.07;2.60;;;19.20;99.90;;;;;;1038591;28;20049;-73
2022/05/08 00:09:34;;;;;;;3.00;2.03;;;19.20;99.90;;;;;;1038734;28;20092;-72
2022/05/08 00:10:05;;;;;;;4.80;3.13;;;19.20;99.90;;;;;;1039675;28;20018;-73
2022/05/08 00:10:35;;;;;;;5.45;2.80;;;19.20;99.90;;;;;;1042687;28;20071;-71
2022/05/08 00:11:06;;;;;;;3.07;2.37;;;19.20;99.90;;;;;;1042722;28;20091;-72
2022/05/08 00:11:37;;;;;;;4.57;2.50;;;19.20;99.90;;;;;;1042775;28;20115;-72
2022/05/08 00:12:11;;;;;;;4.60;2.97;;;19.10;99.90;;;;;;1042647;28;20078;-73
2022/05/08 00:12:41;;;;;;;4.50;3.28;;;19.10;99.90;;;;;;1038775;28;20021;-73
2022/05/08 00:13:14;;;;;;;3.43;2.43;;;19.10;99.90;;;;;;1038974;28;20060;-75
2022/05/08 00:13:48;;;;;;;6.13;2.97;;;19.10;99.90;;;;;;1043056;28;20032;-71
2022/05/08 00:14:19;;;;;;;4.22;2.83;;;19.10;99.90;;;;;;1042634;28;20055;-73
2022/05/08 00:14:50;;;;;;;5.07;2.53;;;19.10;99.90;;;;;;1040558;28;20079;-73
2022/05/08 00:15:20;;;;;;;4.33;3.13;;;19.10;99.90;;;;;;1038928;28;20025;-71
2022/05/08 00:15:51;;;;;;;4.20;2.80;;;19.10;99.90;;;;;;1039163;28;20151;-74
2022/05/08 00:16:21;;;;;;;4.60;3.10;;;19.10;99.90;;;;;;1038689;28;20067;-73
2022/05/08 00:16:52;;;;;;;4.57;2.70;;;19.10;99.90;;;;;;1039126;28;20025;-73
2022/05/08 00:17:22;;;;;;;4.27;3.10;;;19.10;99.90;;;;;;1038421;28;20021;-72
2022/05/08 00:17:53;;;;;;;3.40;2.70;;;19.10;99.90;;;;;;1038653;28;20021;-72
2022/05/08 00:18:24;;;;;;;4.60;2.90;;;19.10;99.90;;;;;;1038620;28;20028;-72
2022/05/08 00:18:54;;;;;;;6.27;3.33;;;19.10;99.90;;;;;;1038692;28;20026;-73
2022/05/08 00:19:25;;;;;;;5.47;3.03;;;19.10;99.90;;;;;;1038454;28;20037;-72
2022/05/08 00:19:56;;;;;;;4.70;2.57;;;19.00;99.90;;;;;;1038729;28;20029;-72
2022/05/08 00:20:26;;;;;;;4.43;3.27;;;19.10;99.90;;;;;;1038596;28;20013;-72
2022/05/08 00:20:57;;;;;;;4.00;2.90;;;19.10;99.90;;;;;;1034627;28;20068;-73
2022/05/08 00:21:27;;;;;;;3.27;2.67;;;19.10;99.90;;;;;;1038561;28;20036;-73
2022/05/08 00:21:58;;;;;;;3.90;2.60;;;19.10;99.90;;;;;;1038443;28;20444;-73
2022/05/08 00:22:29;;;;;;;5.00;2.77;;;19.10;99.90;;;;;;1038623;28;20100;-72
2022/05/08 00:22:59;;;;;;;3.80;2.70;;;19.10;99.90;;;;;;1038560;28;20024;-72
2022/05/08 00:23:30;;;;;;;5.23;2.90;;;19.00;99.90;;;;;;1038742;28;20017;-73
2022/05/08 00:24:00;;;;;;;4.07;2.97;;;19.10;99.90;;;;;;1038932;28;20033;-73
2022/05/08 00:24:31;;;;;;;3.33;2.60;;;19.10;99.90;;;;;;1038385;28;20116;-73
2022/05/08 00:25:03;;;;;;;3.23;2.23;;;19.00;99.90;;;;;;1038642;28;20021;-73
2022/05/08 00:25:33;;;;;;;6.03;3.28;;;19.10;99.90;;;;;;1038672;28;20569;-73
2022/05/08 00:26:07;;;;;;;4.23;3.00;;;19.10;99.90;;;;;;1038670;28;20544;-73
2022/05/08 00:26:38;;;;;;;5.50;2.90;;;19.10;99.90;;;;;;1038611;28;20095;-73
2022/05/08 00:27:08;;;;;;;4.77;3.40;;;19.10;99.90;;;;;;1038847;28;20053;-73
2022/05/08 00:27:39;;;;;;;4.10;2.70;;;19.00;99.90;;;;;;1039285;28;20018;-74
2022/05/08 00:28:09;;;;;;;5.10;2.70;;;19.10;99.90;;;;;;1042743;28;20059;-73
2022/05/08 00:28:40;;;;;;;3.63;2.87;;;19.00;99.90;;;;;;1042731;28;20523;-72
2022/05/08 00:29:11;;;;;;;5.37;3.20;;;19.00;99.90;;;;;;1042718;28;20554;-73
2022/05/08 00:29:41;;;;;;;5.57;2.40;;;19.10;99.90;;;;;;1042641;28;20025;-72
2022/05/08 00:30:12;;;;;;;3.47;2.23;;;19.10;99.90;;;;;;1042380;28;20017;-73
2022/05/08 00:30:43;;;;;;;6.13;3.17;;;19.10;99.90;;;;;;1042878;28;20023;-72
2022/05/08 00:31:14;;;;;;;5.67;3.13;;;19.10;99.90;;;;;;1042574;28;20013;-74
2022/05/08 00:31:44;;;;;;;5.17;3.10;;;19.10;99.90;;;;;;1038924;28;20010;-74
2022/05/08 00:32:15;;;;;;;3.30;2.90;;;19.10;99.90;;;;;;1038779;28;20041;-73
2022/05/08 00:32:45;;;;;;;7.47;3.43;;;19.10;99.90;;;;;;1038572;28;20016;-73
2022/05/08 00:33:16;;;;;;;3.63;2.27;;;19.10;99.90;;;;;;1038348;28;20085;-73
2022/05/08 00:33:46;;;;;;;3.90;2.90;;;19.00;99.90;;;;;;1038671;28;20025;-73
2022/05/08 00:34:17;;;;;;;3.00;2.53;;;19.00;99.90;;;;;;1038353;28;20009;-74
2022/05/08 00:34:48;;;;;;;4.00;3.13;;;19.00;99.90;;;;;;1038650;28;20045;-74
2022/05/08 00:35:19;;;;;;;5.75;3.25;;;19.00;99.90;;;;;;1038497;28;20109;-73
2022/05/08 00:35:49;;;;;;;3.63;2.50;;;19.00;99.90;;;;;;1034493;28;20018;-73
2022/05/08 00:36:20;;;;;;;2.90;2.47;;;19.00;99.90;;;;;;1034502;28;20017;-73
2022/05/08 00:36:50;;;;;;;5.47;3.30;;;19.00;99.90;;;;;;1038732;28;20097;-72
2022/05/08 00:37:21;;;;;;;6.13;3.03;;;19.00;99.90;;;;;;1038407;28;20016;-75
2022/05/08 00:37:51;;;;;;;3.27;2.27;;;19.00;99.90;;;;;;1038657;28;20456;-73
2022/05/08 00:38:22;;;;;;;2.80;2.30;;;19.00;99.90;;;;;;1038371;28;20489;-73
2022/05/08 00:38:55;;;;;;;5.20;2.83;;;19.00;99.90;;;;;;1038760;28;20014;-73
2022/05/08 00:39:25;;;;;;;4.05;3.05;;;19.00;99.90;;;;;;1038597;28;20005;-74
2022/05/08 00:39:56;;;;;;;3.60;2.30;;;19.00;99.90;;;;;;1038951;28;20037;-73
2022/05/08 00:40:27;;;;;;;3.93;3.00;;;19.00;99.90;;;;;;1038781;28;20550;-74
2022/05/08 00:40:57;;;;;;;5.90;3.57;;;19.00;99.90;;;;;;1039090;28;20498;-73
2022/05/08 00:41:28;;;;;;;3.93;2.80;;;19.00;99.90;;;;;;1038912;28;20010;-73
2022/05/08 00:41:59;;;;;;;5.43;3.00;;;19.00;99.90;;;;;;1038570;28;20014;-72
2022/05/08 00:42:30;;;;;;;6.90;3.45;;;19.00;99.90;;;;;;1038334;28;20048;-73
2022/05/08 00:43:28;;;;;;;4.53;2.87;;;19.00;99.90;;;;;;1034171;28;20073;-74
2022/05/08 00:43:59;;;;;;;4.50;2.90;;;19.00;99.90;;;;;;1030244;28;20023;-73
2022/05/08 00:44:30;;;;;;;5.57;3.10;;;19.00;99.90;;;;;;1034388;28;20088;-74
2022/05/08 00:45:00;;;;;;;4.50;2.70;;;19.00;99.90;;;;;;1038345;28;20075;-74
2022/05/08 00:45:31;;;;;;;3.67;2.63;;;19.00;99.90;;;;;;1038830;28;20006;-72
2022/05/08 00:46:07;;;;;;;4.27;2.80;;;19.00;99.90;;;;;;1038474;28;20235;-73
2022/05/08 00:46:38;;;;;;;5.15;3.03;;;19.00;99.90;;;;;;1038416;28;20081;-72
2022/05/08 00:47:09;;;;;;;4.63;3.33;;;19.00;99.90;;;;;;1038700;28;20105;-74
2022/05/08 00:47:39;;;;;;;5.13;3.50;;;19.00;99.90;;;;;;1038607;28;20044;-74
2022/05/08 00:48:10;;;;;;;3.83;2.60;;;19.00;99.90;;;;;;1038768;28;20032;-74
2022/05/08 00:48:41;;;;;;;5.70;3.20;;;19.00;99.90;;;;;;1038426;28;20022;-73
2022/05/08 00:49:11;;;;;;;5.68;3.65;;;19.00;99.90;;;;;;1038649;28;20033;-72
2022/05/08 00:49:42;;;;;;;3.40;2.47;;;19.00;99.90;;;;;;1038595;28;20018;-73
2022/05/08 00:50:13;;;;;;;4.63;3.23;;;19.00;99.90;;;;;;1040083;28;20052;-74
2022/05/08 00:50:44;;;;;;;4.72;2.90;;;18.90;99.90;;;;;;1043025;28;20019;-75
2022/05/08 00:51:17;;;;;;;4.55;2.90;;;18.90;99.90;;;;;;1042842;28;20013;-74
2022/05/08 00:51:49;;;;;;;5.30;2.60;;;18.90;99.90;;;;;;1043154;28;20017;-73
2022/05/08 00:52:19;;;;;;;5.75;3.00;;;18.90;99.90;;;;;;1042522;28;20021;-74
2022/05/08 00:52:50;;;;;;;4.80;2.97;;;18.90;99.90;;;;;;1043220;28;20017;-74
2022/05/08 00:53:21;;;;;;;4.67;2.73;;;18.90;99.90;;;;;;1042782;28;20098;-75
2022/05/08 00:53:53;;;;;;;2.77;2.47;;;18.90;99.90;;;;;;1042577;28;20013;-74
2022/05/08 00:54:24;;;;;;;4.97;2.85;;;18.90;99.90;;;;;;1042645;28;20251;-74
2022/05/08 00:54:54;;;;;;;4.87;3.20;;;18.90;99.90;;;;;;1042754;28;20107;-74
2022/05/08 00:55:26;;;;;;;3.83;3.00;;;18.90;99.90;;;;;;1042655;28;20025;-74
2022/05/08 00:55:57;;;;;;;6.07;3.58;;;18.90;99.90;;;;;;1043130;28;20017;-73
2022/05/08 00:56:27;;;;;;;4.70;2.80;;;18.90;99.90;;;;;;1042932;28;20047;-74
2022/05/08 00:56:59;;;;;;;4.83;2.87;;;18.90;99.90;;;;;;1043084;28;20361;-74
2022/05/08 00:57:30;;;;;;;6.82;2.78;;;18.90;99.90;;;;;;1043090;28;20025;-73
2022/05/08 00:58:02;;;;;;;5.00;3.17;;;18.90;99.90;;;;;;1042582;28;20037;-75
2022/05/08 00:58:35;;;;;;;6.57;3.00;;;18.90;99.90;;;;;;1041101;28;20107;-73
2022/05/08 00:59:05;;;;;;;5.38;3.17;;;18.80;99.90;;;;;;1038329;28;20097;-73
2022/05/08 00:59:36;;;;;;;6.67;3.10;;;18.80;99.90;;;;;;1040960;28;20035;-73
2022/05/08 01:00:08;;;;;;;5.73;2.77;;;18.80;99.90;;;;;;1038948;28;20037;-74
2022/05/08 01:00:39;;;;;;;8.20;3.47;;;18.80;99.90;;;;;;1038852;28;20068;-76
2022/05/08 01:01:10;;;;;;;6.90;3.03;;;18.80;99.90;;;;;;1038529;28;20025;-74
2022/05/08 01:01:40;;;;;;;5.72;2.92;;;18.80;99.90;;;;;;1038436;28;20481;-74
2022/05/08 01:02:11;;;;;;;4.90;3.00;;;18.80;99.90;;;;;;1038638;28;20021;-75
2022/05/08 01:02:41;;;;;;;5.13;3.40;;;18.80;99.90;;;;;;1038534;28;20485;-73
2022/05/08 01:03:12;;;;;;;5.07;3.13;;;18.80;99.90;;;;;;1042456;28;20100;-73
2022/05/08 01:03:44;;;;;;;4.40;3.07;;;18.80;99.90;;;;;;1038555;28;20028;-73
2022/05/08 01:04:15;;;;;;;4.28;2.55;;;18.80;99.90;;;;;;1038608;28;20032;-72
2022/05/08 01:04:46;;;;;;;4.03;2.50;;;18.70;99.90;;;;;;1038831;28;20037;-72
2022/05/08 01:05:16;;;;;;;5.87;2.97;;;18.80;99.90;;;;;;1039250;28;20241;-72
2022/05/08 01:05:50;;;;;;;3.77;2.27;;;18.80;99.90;;;;;;1039054;28;20152;-73
2022/05/08 01:06:20;;;;;;;5.43;2.60;;;18.80;99.90;;;;;;1038901;28;20037;-73
2022/05/08 01:06:51;;;;;;;4.73;3.13;;;18.80;99.90;;;;;;1039470;28;20104;-74
2022/05/08 01:07:22;;;;;;;5.97;3.10;;;18.80;99.90;;;;;;1039330;28;20476;-74
2022/05/08 01:07:52;;;;;;;4.17;2.80;;;18.80;99.90;;;;;;1039377;28;20067;-73
2022/05/08 01:08:25;;;;;;;6.00;3.27;;;18.80;99.90;;;;;;1039624;28;20627;-74
2022/05/08 01:08:55;;;;;;;5.25;3.05;;;18.80;99.90;;;;;;1039155;28;20026;-74
2022/05/08 01:09:27;;;;;;;5.07;2.60;;;18.80;99.90;;;;;;1039907;28;20013;-75
2022/05/08 01:09:58;;;;;;;5.65;3.10;;;18.80;99.90;;;;;;1039948;28;20123;-73
2022/05/08 01:10:29;;;;;;;4.53;2.88;;;18.80;99.90;;;;;;1044039;28;20016;-75
2022/05/08 01:11:04;;;;;;;3.50;2.50;;;18.80;99.90;;;;;;1043302;28;20387;-74
2022/05/08 01:11:36;;;;;;;5.10;2.80;;;18.80;99.90;;;;;;1043497;28;20450;-75
2022/05/08 01:12:07;;;;;;;4.28;2.80;;;18.80;99.90;;;;;;1043173;28;20096;-73
2022/05/08 01:12:44;;;;;;;5.50;3.13;;;18.80;99.90;;;;;;1043854;28;20638;-73
2022/05/08 01:13:15;;;;;;;4.10;3.08;;;18.80;99.90;;;;;;1043598;28;20017;-73
2022/05/08 01:13:45;;;;;;;6.27;3.17;;;18.80;99.90;;;;;;1044076;28;20021;-73
2022/05/08 01:14:17;;;;;;;3.80;2.45;;;18.80;99.90;;;;;;1043515;28;20090;-73
2022/05/08 01:15:07;;;;;;;4.80;3.22;;;18.80;99.90;;;;;;1044024;28;20013;-74
2022/05/08 01:15:43;;;;;;;5.82;2.90;;;18.80;99.90;;;;;;1043810;28;20711;-75
2022/05/08 01:16:17;;;;;;;3.95;2.72;;;18.80;99.90;;;;;;1043044;28;20055;-73
2022/05/08 01:16:47;;;;;;;5.70;3.00;;;18.80;99.90;;;;;;1043712;28;20024;-74
2022/05/08 01:17:18;;;;;;;4.47;2.90;;;18.70;99.90;;;;;;1043199;28;20021;-73
2022/05/08 01:17:49;;;;;;;4.87;3.00;;;18.70;99.90;;;;;;1043665;28;20072;-73
2022/05/08 01:18:19;;;;;;;4.00;2.50;;;18.70;99.90;;;;;;1043729;28;20032;-75
2022/05/08 01:18:50;;;;;;;5.47;3.20;;;18.70;99.90;;;;;;1043994;28;20017;-75
2022/05/08 01:19:21;;;;;;;4.10;2.90;;;18.70;99.90;;;;;;1043215;28;20025;-74
2022/05/08 01:19:51;;;;;;;5.57;3.60;;;18.70;99.90;;;;;;1043548;28;20434;-73
2022/05/08 01:20:22;;;;;;;4.00;2.57;;;18.70;99.90;;;;;;1043645;28;20510;-75
2022/05/08 01:20:52;;;;;;;7.97;3.40;;;18.70;99.90;;;;;;1043361;28;20052;-73
2022/05/08 01:21:39;;;;;;;3.17;2.57;;;18.70;99.90;;;;;;1043282;28;20028;-73
2022/05/08 01:22:10;;;;;;;5.03;2.90;;;18.70;99.90;;;;;;1039176;28;20817;-75
2022/05/08 01:22:41;;;;;;;6.33;3.40;;;18.70;99.90;;;;;;1041548;28;20113;-72
2022/05/08 01:23:12;;;;;;;5.13;2.97;;;18.70;99.90;;;;;;1043489;28;20064;-73
2022/05/08 01:23:44;;;;;;;4.53;3.08;;;18.70;99.90;;;;;;1043565;28;20022;-74
2022/05/08 01:24:20;;;;;;;5.45;3.05;;;18.70;99.90;;;;;;1043315;28;20044;-72
2022/05/08 01:24:51;;;;;;;5.57;3.47;;;18.70;99.90;;;;;;1043794;28;20054;-74
2022/05/08 01:25:22;;;;;;;3.73;2.93;;;18.70;99.90;;;;;;1043723;28;20039;-73
2022/05/08 01:25:57;;;;;;;4.00;2.87;;;18.70;99.90;;;;;;1043759;28;20012;-75
2022/05/08 01:26:27;;;;;;;3.65;2.95;;;18.70;99.90;;;;;;1043601;28;20064;-73
2022/05/08 01:26:58;;;;;;;4.50;3.13;;;18.70;99.90;;;;;;1043157;28;20661;-73
2022/05/08 01:27:28;;;;;;;4.47;2.60;;;18.60;99.90;;;;;;1043441;28;20791;-75
2022/05/08 01:28:00;;;;;;;4.93;3.63;;;18.70;99.90;;;;;;1043288;28;20487;-76
2022/05/08 01:28:30;;;;;;;4.78;2.80;;;18.70;99.90;;;;;;1043472;28;20021;-74
2022/05/08 01:29:01;;;;;;;4.97;3.10;;;18.70;99.90;;;;;;1043588;28;20025;-75
2022/05/08 01:29:32;;;;;;;4.38;2.92;;;18.70;99.90;;;;;;1043811;28;20416;-74
2022/05/08 01:30:05;;;;;;;5.63;2.90;;;18.70;99.90;;;;;;1043181;28;20679;-74
2022/05/08 01:30:38;;;;;;;8.18;3.10;;;18.70;99.90;;;;;;1043485;28;20058;-73
2022/05/08 01:31:08;;;;;;;5.75;3.25;;;18.60;99.90;;;;;;1043325;28;20013;-73
2022/05/08 01:31:39;;;;;;;5.20;3.10;;;18.70;99.90;;;;;;1043434;28;20025;-73
2022/05/08 01:32:10;;;;;;;6.67;3.73;;;18.70;99.90;;;;;;1043325;28;20068;-74
2022/05/08 01:32:40;;;;;;;5.93;3.47;;;18.70;99.90;;;;;;1043848;28;20108;-75
2022/05/08 01:33:11;;;;;;;3.77;3.17;;;18.60;99.90;;;;;;1043285;28;20071;-73
2022/05/08 01:33:42;;;;;;;3.63;2.58;;;18.60;99.90;;;;;;1043543;28;20736;-74
2022/05/08 01:34:12;;;;;;;4.90;3.00;;;18.60;99.90;;;;;;1043259;28;20816;-76
2022/05/08 01:34:43;;;;;;;3.97;2.70;;;18.60;99.90;;;;;;1043572;28;20437;-73
2022/05/08 01:35:13;;;;;;;3.90;2.90;;;18.60;99.90;;;;;;1043432;28;20098;-73
2022/05/08 01:35:45;;;;;;;7.47;3.00;;;18.60;99.90;;;;;;1043999;28;20413;-73
2022/05/08 01:36:15;;;;;;;5.43;3.67;;;18.60;99.90;;;;;;1043500;28;20044;-73
2022/05/08 01:36:46;;;;;;;5.23;2.93;;;18.60;99.90;;;;;;1043817;28;20052;-73
2022/05/08 01:37:16;;;;;;;4.93;3.33;;;18.60;99.90;;;;;;1043492;28;20170;-74
2022/05/08 01:37:47;;;;;;;6.33;3.10;;;18.60;99.90;;;;;;1043732;28;20022;-75
2022/05/08 01:38:20;;;;;;;4.87;3.03;;;18.60;99.90;;;;;;1043413;28;20044;-73
2022/05/08 01:38:51;;;;;;;6.95;3.28;;;18.60;99.90;;;;;;1043338;28;20024;-74
2022/05/08 01:39:22;;;;;;;4.93;2.80;;;18.60;99.90;;;;;;1043213;28;20046;-74
2022/05/08 01:39:52;;;;;;;5.77;3.03;;;18.60;99.90;;;;;;1043450;28;20481;-75
2022/05/08 01:40:23;;;;;;;4.57;2.77;;;18.50;99.90;;;;;;1043310;28;20527;-75
2022/05/08 01:40:55;;;;;;;6.00;3.10;;;18.50;99.90;;;;;;1043178;28;20407;-74
2022/05/08 01:41:25;;;;;;;6.00;2.85;;;18.50;99.90;;;;;;1043334;28;20055;-74
2022/05/08 01:41:56;;;;;;;4.53;3.43;;;18.50;99.90;;;;;;1043285;28;20090;-74
2022/05/08 01:42:27;;;;;;;4.10;3.10;;;18.50;99.90;;;;;;1043225;28;20021;-73
2022/05/08 01:42:58;;;;;;;5.95;3.00;;;18.50;99.90;;;;;;1043049;28;20009;-72
2022/05/08 01:43:32;;;;;;;6.23;3.17;;;18.50;99.90;;;;;;1038950;28;20022;-72
2022/05/08 01:44:02;;;;;;;4.93;2.75;;;18.50;99.90;;;;;;1038070;28;20034;-74
2022/05/08 01:44:33;;;;;;;6.30;3.20;;;18.50;99.90;;;;;;1035030;28;20045;-74
2022/05/08 01:45:04;;;;;;;3.43;2.27;;;18.50;99.90;;;;;;1035642;28;20025;-75
2022/05/08 01:45:35;;;;;;;5.47;2.90;;;18.50;99.90;;;;;;1039173;28;20022;-73
2022/05/08 01:46:06;;;;;;;5.80;3.03;;;18.50;99.90;;;;;;1039246;28;20033;-74
2022/05/08 01:46:36;;;;;;;7.97;3.30;;;18.50;99.90;;;;;;1040621;28;20028;-74
2022/05/08 01:48:47;;;;;;;6.57;3.10;;;18.50;99.90;;;;;;1039610;28;20099;-72
2022/05/08 01:49:17;;;;;;;7.53;3.75;;;18.50;99.90;;;;;;1038985;28;20400;-73
2022/05/08 01:49:48;;;;;;;3.77;2.50;;;18.50;99.90;;;;;;1039286;28;20481;-76
2022/05/08 01:50:18;;;;;;;6.90;4.03;;;18.50;99.90;;;;;;1041701;28;20488;-74
2022/05/08 01:50:53;;;;;;;6.33;2.80;;;18.50;99.90;;;;;;1043381;28;20555;-74
2022/05/08 01:51:23;;;;;;;4.68;3.03;;;18.50;99.90;;;;;;1043800;28;20021;-74
2022/05/08 01:51:54;;;;;;;6.90;3.43;;;18.50;99.90;;;;;;1043153;28;20112;-73
2022/05/08 01:52:25;;;;;;;5.27;3.10;;;18.50;99.90;;;;;;1043202;28;20032;-74
2022/05/08 01:52:56;;;;;;;6.40;3.28;;;18.50;99.90;;;;;;1043087;28;20074;-75
2022/05/08 01:53:31;;;;;;;6.83;3.50;;;18.50;99.90;;;;;;1043292;28;20071;-73
2022/05/08 01:54:02;;;;;;;3.85;2.70;;;18.50;99.90;;;;;;1043372;28;20021;-73
2022/05/08 01:54:33;;;;;;;4.03;2.70;;;18.50;99.90;;;;;;1043494;28;20021;-74
2022/05/08 01:55:04;;;;;;;4.83;3.03;;;18.50;99.90;;;;;;1043451;28;20037;-74
2022/05/08 01:55:35;;;;;;;5.23;2.73;;;18.50;99.90;;;;;;1043585;28;20108;-73
2022/05/08 01:56:07;;;;;;;6.43;3.37;;;18.50;99.90;;;;;;1043436;28;20036;-73
2022/05/08 01:56:38;;;;;;;4.50;2.35;;;18.50;99.90;;;;;;1043178;28;20295;-73
2022/05/08 01:57:08;;;;;;;5.00;2.80;;;18.50;99.90;;;;;;1043102;28;20040;-74
2022/05/08 01:57:39;;;;;;;4.17;2.67;;;18.50;99.90;;;;;;1043288;28;20025;-74
2022/05/08 01:58:09;;;;;;;6.03;3.10;;;18.50;99.90;;;;;;1043035;28;20025;-74
2022/05/08 01:58:40;;;;;;;7.97;3.00;;;18.50;99.90;;;;;;1043225;28;20052;-72
2022/05/08 01:59:12;;;;;;;5.43;2.87;;;18.50;99.90;;;;;;1042963;28;20045;-73
2022/05/08 01:59:42;;;;;;;7.55;3.00;;;18.50;99.90;;;;;;1043383;28;20032;-73
2022/05/08 02:00:13;;;;;;;6.50;3.17;;;18.50;99.90;;;;;;1042845;28;20031;-75
2022/05/08 02:00:45;;;;;;;5.43;2.90;;;18.40;99.90;;;;;;1043408;28;20041;-73
2022/05/08 02:01:15;;;;;;;5.57;2.95;;;18.50;99.90;;;;;;1042961;28;20056;-76
2022/05/08 02:01:46;;;;;;;5.82;2.78;;;18.40;99.90;;;;;;1039123;28;20044;-75
2022/05/08 02:02:17;;;;;;;7.83;3.90;;;18.50;99.90;;;;;;1038996;28;20437;-73
2022/05/08 02:02:49;;;;;;;4.50;3.07;;;18.50;99.90;;;;;;1039035;28;20057;-74
2022/05/08 02:03:20;;;;;;;5.13;2.70;;;18.40;99.90;;;;;;1039328;28;20018;-74
2022/05/08 02:03:51;;;;;;;6.90;3.25;;;18.40;99.90;;;;;;1043238;28;20377;-75
2022/05/08 02:04:21;;;;;;;5.10;2.80;;;18.50;99.90;;;;;;1043012;28;20495;-73
2022/05/08 02:04:52;;;;;;;7.50;3.03;;;18.50;99.90;;;;;;1043207;28;20029;-74
2022/05/08 02:05:23;;;;;;;9.07;2.60;;;18.50;99.90;;;;;;1043150;28;20117;-73
2022/05/08 02:05:53;;;;;;;6.07;3.03;;;18.50;99.90;;;;;;1043149;28;20109;-74
2022/05/08 02:06:24;;;;;;;5.47;2.83;;;18.50;99.90;;;;;;1043244;28;20017;-74
2022/05/08 02:06:54;;;;;;;7.07;3.40;;;18.40;99.90;;;;;;1043385;28;20527;-74
2022/05/08 02:07:25;;;;;;;9.10;3.23;;;18.40;99.90;;;;;;1043669;28;20039;-74
2022/05/08 02:07:56;;;;;;;6.73;2.83;;;18.40;99.90;;;;;;1043015;28;20202;-74
2022/05/08 02:08:27;;;;;;;6.30;2.85;;;18.40;99.90;;;;;;1043338;28;20380;-75
2022/05/08 02:08:57;;;;;;;7.60;3.07;;;18.40;99.90;;;;;;1043090;28;20710;-76
2022/05/08 02:09:28;;;;;;;6.80;2.67;;;18.40;99.90;;;;;;1043389;28;20062;-75
2022/05/08 02:09:59;;;;;;;5.33;2.80;;;18.40;99.90;;;;;;1039045;28;20716;-74
2022/05/08 02:10:29;;;;;;;6.20;3.17;;;18.30;99.90;;;;;;1039306;28;20025;-75
2022/05/08 02:11:00;;;;;;;8.17;3.63;;;18.30;99.90;;;;;;1043082;28;20009;-73
2022/05/08 02:11:30;;;;;;;7.57;2.83;;;18.30;99.90;;;;;;1043426;28;20511;-74
2022/05/08 02:12:01;;;;;;;7.83;3.10;;;18.30;99.90;;;;;;1043436;28;20059;-74
2022/05/08 02:12:31;;;;;;;5.30;2.60;;;18.30;99.90;;;;;;1043676;28;20839;-75
2022/05/08 02:13:02;;;;;;;6.07;3.33;;;18.30;99.90;;;;;;1043124;28;20016;-75
2022/05/08 02:13:33;;;;;;;6.43;2.90;;;18.30;99.90;;;;;;1043196;28;20033;-75
2022/05/08 02:14:04;;;;;;;4.47;2.93;;;18.30;99.90;;;;;;1042922;28;20029;-74
2022/05/08 02:14:35;;;;;;;6.13;2.95;;;18.30;99.90;;;;;;1043347;28;20063;-76
2022/05/08 02:15:07;;;;;;;4.23;2.40;;;18.30;99.90;;;;;;1043040;28;20775;-75
2022/05/08 02:15:38;;;;;;;8.50;3.22;;;18.30;99.90;;;;;;1043257;28;20027;-75
2022/05/08 02:16:11;;;;;;;5.18;3.13;;;18.30;99.90;;;;;;1043506;28;20021;-74
2022/05/08 02:16:42;;;;;;;4.80;2.70;;;18.30;99.90;;;;;;1043600;28;20009;-75
2022/05/08 02:17:12;;;;;;;6.93;3.25;;;18.30;99.90;;;;;;1042942;28;20563;-75
2022/05/08 02:17:43;;;;;;;5.00;3.13;;;18.30;99.90;;;;;;1043075;28;20489;-75
2022/05/08 02:18:13;;;;;;;5.50;2.87;;;18.30;99.90;;;;;;1042186;28;20018;-75
2022/05/08 02:18:44;;;;;;;8.17;3.23;;;18.30;99.90;;;;;;1043016;28;20013;-75
2022/05/08 02:19:14;;;;;;;7.63;3.33;;;18.30;99.90;;;;;;1042974;28;20021;-74
2022/05/08 02:19:45;;;;;;;6.03;3.10;;;18.30;99.90;;;;;;1043364;28;20013;-74
2022/05/08 02:20:16;;;;;;;6.27;2.90;;;18.20;99.90;;;;;;1042808;28;20036;-75
2022/05/08 02:20:46;;;;;;;7.70;2.53;;;18.20;99.90;;;;;;1043626;28;20542;-74
2022/05/08 02:21:17;;;;;;;5.27;2.97;;;18.20;99.90;;;;;;1043353;28;20017;-73
2022/05/08 02:21:48;;;;;;;7.43;2.83;;;18.20;99.90;;;;;;1043739;28;20460;-74
2022/05/08 02:22:18;;;;;;;4.93;2.87;;;18.20;99.90;;;;;;1043307;28;21011;-74
2022/05/08 02:22:49;;;;;;;7.17;3.60;;;18.20;99.90;;;;;;1043800;28;20542;-75
2022/05/08 02:23:19;;;;;;;6.60;2.90;;;18.20;99.90;;;;;;1043369;28;20127;-76
2022/05/08 02:23:50;;;;;;;6.57;3.47;;;18.20;99.90;;;;;;1043251;28;20017;-76
2022/05/08 02:24:20;;;;;;;7.00;3.37;;;18.20;99.90;;;;;;1043349;28;20021;-75
2022/05/08 02:24:51;;;;;;;5.47;2.73;;;18.30;99.90;;;;;;1043856;28;20464;-76
2022/05/08 02:25:22;;;;;;;4.93;2.70;;;18.30;99.90;;;;;;1043486;28;20540;-75
2022/05/08 02:25:52;;;;;;;8.07;3.40;;;18.30;99.90;;;;;;1043570;28;20021;-73
2022/05/08 02:26:23;;;;;;;5.47;2.67;;;18.20;99.90;;;;;;1043229;28;20012;-74
2022/05/08 02:26:53;;;;;;;7.53;2.60;;;18.30;99.90;;;;;;1042990;28;20023;-75
2022/05/08 02:27:24;;;;;;;8.47;3.30;;;18.30;99.90;;;;;;1043198;28;20017;-76
2022/05/08 02:27:54;;;;;;;6.37;3.27;;;18.20;99.90;;;;;;1043006;28;20017;-75
2022/05/08 02:28:25;;;;;;;4.70;2.47;;;18.20;99.90;;;;;;1043228;28;20017;-76
2022/05/08 02:28:55;;;;;;;6.17;3.40;;;18.20;99.90;;;;;;1043170;28;20115;-76
2022/05/08 02:29:26;;;;;;;8.00;2.70;;;18.20;99.90;;;;;;1043207;28;20074;-74
2022/05/08 02:29:56;;;;;;;4.90;3.20;;;18.20;99.90;;;;;;1043026;28;20132;-75
2022/05/08 02:30:27;;;;;;;5.73;3.10;;;18.20;99.90;;;;;;1043048;28;20392;-75
2022/05/08 02:30:57;;;;;;;6.40;3.13;;;18.20;99.90;;;;;;1043209;28;20475;-75
2022/05/08 02:31:28;;;;;;;9.60;3.10;;;18.20;99.90;;;;;;1043077;28;20017;-76
2022/05/08 02:31:59;;;;;;;5.50;3.13;;;18.20;99.90;;;;;;1043510;28;20040;-74
2022/05/08 02:32:29;;;;;;;9.07;3.07;;;18.20;99.90;;;;;;1043156;28;20024;-75
2022/05/08 02:33:00;;;;;;;8.43;3.63;;;18.20;99.90;;;;;;1043135;28;20032;-75
2022/05/08 02:33:32;;;;;;;7.47;3.90;;;18.20;99.90;;;;;;1042975;28;20041;-74
2022/05/08 02:34:02;;;;;;;6.95;3.20;;;18.10;99.90;;;;;;1043234;28;20013;-74
2022/05/08 02:34:33;;;;;;;6.13;3.17;;;18.10;99.90;;;;;;1043217;28;20032;-74
2022/05/08 02:35:06;;;;;;;6.53;3.07;;;18.10;99.90;;;;;;1043603;28;20028;-74
2022/05/08 02:35:36;;;;;;;4.03;2.22;;;18.10;99.90;;;;;;1043018;28;20047;-74
2022/05/08 02:36:07;;;;;;;6.53;3.00;;;18.10;99.90;;;;;;1042902;28;20023;-74
2022/05/08 02:36:38;;;;;;;6.00;2.90;;;18.10;99.90;;;;;;1043156;28;20020;-74
2022/05/08 02:37:09;;;;;;;4.90;2.97;;;18.10;99.90;;;;;;1043002;28;20024;-73
2022/05/08 02:37:40;;;;;;;5.57;2.87;;;18.10;99.90;;;;;;1043074;28;20310;-76
2022/05/08 02:38:11;;;;;;;5.63;2.60;;;18.10;99.90;;;;;;1043163;28;20151;-75
2022/05/08 02:38:41;;;;;;;5.23;2.60;;;18.10;99.90;;;;;;1039163;28;20033;-75
2022/05/08 02:39:12;;;;;;;6.80;3.30;;;18.10;99.90;;;;;;1043001;28;20495;-76
2022/05/08 02:39:43;;;;;;;7.10;2.90;;;18.10;99.90;;;;;;1039109;28;20032;-75
2022/05/08 02:40:13;;;;;;;7.68;2.97;;;18.10;99.90;;;;;;1038797;28;20105;-77
2022/05/08 02:40:44;;;;;;;6.20;2.77;;;18.10;99.90;;;;;;1039306;28;20017;-75
2022/05/08 02:41:15;;;;;;;7.77;2.97;;;18.10;99.90;;;;;;1039030;28;20534;-75
2022/05/08 02:41:46;;;;;;;6.57;2.67;;;18.10;99.90;;;;;;1039005;28;20502;-76
2022/05/08 02:42:17;;;;;;;7.50;3.33;;;18.10;99.90;;;;;;1038730;28;20024;-75
2022/05/08 02:42:48;;;;;;;6.23;3.20;;;18.10;99.90;;;;;;1039298;28;20140;-73
2022/05/08 02:43:20;;;;;;;7.50;3.10;;;18.10;99.90;;;;;;1038630;28;20767;-74
2022/05/08 02:43:51;;;;;;;4.28;2.40;;;18.20;99.90;;;;;;1038869;28;20021;-75
2022/05/08 02:44:21;;;;;;;6.17;2.90;;;18.10;99.90;;;;;;1038917;28;20053;-74